createdAt,value
2022-11-22T00:00:15.818Z,13.49
2022-11-22T00:03:20.967Z,13.12
2022-11-22T00:06:26.183Z,13.55
2022-11-22T00:09:32.198Z,13.85
2022-11-22T00:12:38.404Z,13.70
2022-11-22T00:15:45.747Z,13.79
2022-11-22T00:18:50.917Z,13.82
2022-11-22T00:21:56.044Z,13.86
2022-11-22T00:25:00.564Z,13.24
2022-11-22T00:28:06.134Z,13.51
2022-11-22T00:31:05.844Z,13.62
2022-11-22T00:34:11.178Z,13.52
2022-11-22T00:37:17.641Z,13.73
2022-11-22T00:40:23.430Z,13.18
2022-11-22T00:43:27.980Z,13.85
2022-11-22T00:46:33.567Z,14.37
2022-11-22T00:49:39.220Z,13.54
2022-11-22T00:52:45.653Z,13.47
2022-11-22T00:55:51.291Z,13.34
2022-11-22T00:58:56.854Z,13.26
2022-11-22T01:02:01.678Z,13.48
2022-11-22T01:05:07.904Z,13.48
2022-11-22T01:08:12.627Z,13.40
2022-11-22T01:11:17.942Z,13.42
2022-11-22T01:14:23.059Z,13.65
2022-11-22T01:17:29.237Z,13.57
2022-11-22T01:20:35.164Z,13.81
2022-11-22T01:23:40.951Z,13.78
2022-11-22T01:26:46.599Z,13.82
2022-11-22T01:29:51.658Z,14.06
2022-11-22T01:32:57.355Z,14.04
2022-11-22T01:36:02.969Z,12.70
2022-11-22T01:39:09.611Z,12.46
2022-11-22T01:42:15.789Z,12.95
2022-11-22T01:45:52.537Z,12.99
2022-11-22T01:49:19.851Z,13.24
2022-11-22T01:52:30.291Z,12.98
2022-11-22T01:55:35.924Z,13.31
2022-11-22T01:58:41.364Z,13.03
2022-11-22T02:01:46.901Z,12.95
2022-11-22T02:04:52.942Z,13.02
2022-11-22T02:08:06.949Z,13.10
2022-11-22T02:11:15.740Z,13.11
2022-11-22T02:14:21.198Z,13.10
2022-11-22T02:17:28.220Z,12.87
2022-11-22T02:20:34.155Z,12.72
2022-11-22T02:23:59.797Z,12.69
2022-11-22T02:27:07.011Z,12.64
2022-11-22T02:30:12.034Z,12.69
2022-11-22T02:33:18.844Z,12.22
2022-11-22T02:36:25.903Z,12.32
2022-11-22T02:39:35.246Z,12.52
2022-11-22T02:42:40.744Z,12.32
2022-11-22T02:45:46.196Z,12.34
2022-11-22T02:48:58.562Z,12.34
2022-11-22T02:52:04.722Z,12.37
2022-11-22T02:55:10.099Z,11.99
2022-11-22T02:58:15.383Z,12.03
2022-11-22T03:01:13.893Z,12.00
2022-11-22T03:04:20.986Z,11.88
2022-11-22T03:07:26.941Z,11.85
2022-11-22T03:10:31.905Z,11.84
2022-11-22T03:13:37.780Z,11.73
2022-11-22T03:16:43.150Z,11.81
2022-11-22T03:19:48.951Z,11.81
2022-11-22T03:22:54.153Z,11.76
2022-11-22T03:25:58.540Z,11.61
2022-11-22T03:29:04.702Z,11.43
2022-11-22T03:32:10.425Z,11.59
2022-11-22T03:35:16.962Z,11.41
2022-11-22T03:38:15.773Z,11.55
2022-11-22T03:41:08.731Z,11.43
2022-11-22T03:44:14.877Z,11.29
2022-11-22T03:47:20.448Z,11.29
2022-11-22T03:50:26.471Z,11.07
2022-11-22T03:53:32.665Z,10.98
2022-11-22T03:56:38.262Z,10.86
2022-11-22T03:59:44.697Z,11.09
2022-11-22T04:02:51.105Z,10.89
2022-11-22T04:05:59.511Z,10.77
2022-11-22T07:24:57.002Z,5.06
2022-11-22T07:28:06.097Z,5.06
2022-11-22T07:31:30.680Z,5.04
2022-11-22T07:34:48.691Z,5.00
2022-11-22T07:38:08.149Z,4.99
2022-11-22T07:41:20.177Z,4.84
2022-11-22T07:44:30.428Z,4.86
2022-11-22T07:47:36.215Z,4.83
2022-11-22T07:50:40.750Z,4.90
2022-11-22T07:53:46.167Z,4.97
2022-11-22T07:56:51.186Z,4.99
2022-11-22T07:59:56.547Z,5.00
2022-11-22T08:03:07.578Z,5.16
2022-11-22T08:06:16.956Z,5.19
2022-11-22T08:09:24.931Z,4.91
2022-11-22T08:12:52.809Z,4.94
2022-11-22T08:16:25.572Z,5.35
2022-11-22T08:23:41.640Z,5.37
2022-11-22T08:26:49.538Z,5.60
2022-11-22T08:29:56.555Z,5.69
2022-11-22T08:33:13.802Z,5.72
2022-11-22T08:36:21.156Z,5.67
2022-11-22T08:39:27.128Z,5.49
2022-11-22T08:42:33.402Z,6.14
2022-11-22T08:45:39.529Z,5.67
2022-11-22T08:48:55.084Z,5.56
2022-11-22T08:51:59.955Z,5.81
2022-11-22T08:55:06.819Z,6.04
2022-11-22T08:58:16.102Z,5.89
2022-11-22T09:01:27.649Z,5.83
2022-11-22T09:04:33.943Z,5.61
2022-11-22T09:10:48.506Z,5.74
2022-11-22T09:13:56.671Z,5.96
2022-11-22T09:17:02.358Z,5.93
2022-11-22T09:20:00.756Z,5.98
2022-11-22T09:23:07.375Z,5.99
2022-11-22T09:26:18.381Z,5.66
2022-11-22T09:29:27.380Z,5.74
2022-11-22T09:32:34.642Z,5.55
2022-11-22T09:35:40.745Z,5.78
2022-11-22T09:38:46.146Z,6.36
2022-11-22T09:42:19.698Z,6.25
2022-11-22T09:46:07.634Z,6.06
2022-11-22T09:49:54.375Z,5.89
2022-11-22T09:53:12.305Z,6.20
2022-11-22T09:56:22.211Z,6.24
2022-11-22T09:59:37.710Z,5.87
2022-11-22T10:03:00.324Z,5.89
2022-11-22T10:06:05.488Z,6.16
2022-11-22T10:09:52.442Z,6.15
2022-11-22T10:13:06.372Z,6.27
2022-11-22T10:16:27.189Z,6.08
2022-11-22T10:19:44.960Z,6.34
2022-11-22T10:22:51.540Z,6.33
2022-11-22T10:26:20.922Z,6.36
2022-11-22T10:29:54.145Z,6.26
2022-11-22T10:33:21.271Z,6.09
2022-11-22T10:36:42.090Z,6.17
2022-11-22T10:39:52.912Z,6.29
2022-11-22T10:43:14.526Z,6.32
2022-11-22T10:46:38.090Z,6.59
2022-11-22T10:50:25.862Z,6.93
2022-11-22T10:54:10.892Z,5.50
2022-11-22T10:57:46.628Z,4.83
2022-11-22T11:01:10.160Z,4.66
2022-11-22T11:04:32.749Z,4.63
2022-11-22T11:07:41.242Z,4.58
2022-11-22T11:10:50.134Z,4.57
2022-11-22T11:14:11.369Z,4.70
2022-11-22T11:17:17.947Z,4.69
2022-11-22T11:20:39.304Z,4.80
2022-11-22T11:23:48.292Z,4.84
2022-11-22T11:26:53.776Z,4.82
2022-11-22T11:30:17.059Z,4.81
2022-11-22T11:33:34.000Z,4.68
2022-11-22T11:36:39.861Z,4.67
2022-11-22T11:39:49.441Z,4.66
2022-11-22T11:42:55.609Z,4.51
2022-11-22T11:46:01.997Z,4.42
2022-11-22T11:49:10.833Z,4.41
2022-11-22T11:52:29.314Z,4.31
2022-11-22T11:55:35.109Z,4.24
2022-11-22T11:58:40.141Z,4.22
2022-11-22T12:01:49.423Z,4.18
2022-11-22T12:05:15.164Z,4.28
2022-11-22T12:08:44.289Z,4.25
2022-11-22T12:11:56.672Z,4.28
2022-11-22T12:15:11.891Z,4.18
2022-11-22T12:18:38.349Z,4.16
2022-11-22T12:22:29.334Z,4.20
2022-11-22T12:25:53.538Z,4.20
2022-11-22T12:29:00.085Z,4.29
2022-11-22T12:32:27.837Z,4.35
2022-11-22T12:35:42.241Z,4.32
2022-11-22T12:38:51.128Z,4.44
2022-11-22T12:41:57.968Z,4.41
2022-11-22T12:45:23.833Z,4.28
2022-11-22T12:48:34.655Z,4.18
2022-11-22T12:51:47.156Z,4.14
2022-11-22T12:55:12.454Z,4.03
2022-11-22T12:58:55.243Z,3.96
2022-11-22T13:02:10.603Z,4.01
2022-11-22T13:05:21.265Z,3.97
2022-11-22T13:08:57.677Z,4.03
2022-11-22T13:12:09.462Z,3.98
2022-11-22T13:15:15.585Z,3.98
2022-11-22T13:18:24.346Z,4.18
2022-11-22T13:21:56.016Z,4.14
2022-11-22T13:25:20.737Z,4.06
2022-11-22T16:16:28.967Z,1.84
2022-11-22T16:19:38.726Z,1.88
2022-11-22T16:22:46.921Z,1.85
2022-11-22T16:25:55.182Z,1.89
2022-11-22T16:29:02.434Z,1.93
2022-11-22T16:32:15.027Z,1.91
2022-11-22T16:35:30.141Z,1.92
2022-11-22T16:38:37.459Z,1.93
2022-11-22T16:41:43.247Z,1.95
2022-11-22T16:44:49.591Z,2.01
2022-11-22T16:48:16.613Z,1.87
2022-11-22T16:51:17.442Z,1.76
2022-11-22T16:54:25.851Z,1.87
2022-11-22T16:57:31.187Z,1.94
2022-11-22T17:00:36.935Z,1.88
2022-11-22T17:03:43.368Z,1.99
2022-11-22T17:06:51.620Z,2.01
2022-11-22T17:09:59.189Z,2.10
2022-11-22T17:13:05.614Z,2.15
2022-11-22T17:16:11.832Z,2.08
2022-11-22T17:22:25.389Z,1.91
2022-11-22T17:25:32.507Z,1.81
2022-11-22T17:28:37.970Z,2.40
2022-11-22T17:31:42.934Z,2.39
2022-11-22T17:34:48.776Z,1.99
2022-11-22T17:37:55.272Z,2.00
2022-11-22T17:41:01.467Z,2.04
2022-11-22T17:44:05.755Z,2.03
2022-11-22T17:47:10.717Z,2.06
2022-11-22T17:50:16.067Z,1.96
2022-11-22T17:53:22.319Z,2.30
2022-11-22T17:56:28.304Z,2.22
2022-11-22T17:59:33.366Z,2.15
2022-11-22T18:02:39.461Z,2.19
2022-11-22T18:05:46.325Z,2.19
2022-11-22T18:08:50.963Z,2.10
2022-11-22T18:11:56.681Z,2.08
2022-11-22T18:15:05.665Z,2.24
2022-11-22T18:18:21.924Z,2.26
2022-11-22T18:21:20.993Z,2.49
2022-11-22T18:24:26.266Z,2.57
2022-11-22T18:27:31.896Z,2.84
2022-11-22T18:30:39.923Z,2.96
2022-11-22T18:33:45.897Z,3.25
2022-11-22T18:37:00.740Z,3.85
2022-11-22T18:39:59.216Z,2.84
2022-11-22T18:43:05.493Z,2.65
2022-11-22T18:46:18.310Z,2.80
2022-11-22T18:49:24.061Z,2.80
2022-11-22T18:52:29.818Z,2.89
2022-11-22T18:55:34.498Z,2.84
2022-11-22T18:58:41.163Z,2.65
2022-11-22T19:01:47.742Z,2.56
2022-11-22T19:04:53.180Z,2.66
2022-11-22T19:08:03.872Z,2.84
2022-11-22T19:11:12.077Z,2.79
2022-11-22T19:14:17.759Z,2.83
2022-11-22T19:17:23.040Z,2.96
2022-11-22T19:20:54.172Z,2.80
2022-11-22T19:23:39.025Z,2.83
2022-11-22T19:26:44.599Z,2.92
2022-11-22T19:29:50.082Z,2.85
2022-11-22T19:32:56.195Z,2.81
2022-11-22T19:36:12.982Z,2.95
2022-11-22T19:39:20.112Z,3.02
2022-11-22T19:42:27.480Z,3.21
2022-11-22T19:45:34.023Z,3.44
2022-11-22T19:48:45.380Z,3.38
2022-11-22T19:51:47.473Z,3.20
2022-11-22T19:54:53.476Z,3.23
2022-11-22T19:57:59.502Z,3.30
2022-11-22T20:01:05.541Z,3.47
2022-11-22T20:04:19.270Z,3.72
2022-11-22T20:07:24.994Z,3.69
2022-11-22T20:10:31.141Z,3.72
2022-11-22T20:13:37.533Z,3.31
2022-11-22T20:16:43.700Z,3.74
2022-11-22T20:19:48.783Z,3.85
2022-11-22T20:22:54.066Z,3.87
2022-11-22T20:26:00.186Z,3.77
2022-11-22T20:29:14.928Z,4.03
2022-11-22T20:32:20.562Z,3.41
2022-11-22T20:35:25.800Z,3.66
2022-11-22T20:38:32.226Z,3.79
2022-11-22T20:41:40.383Z,3.81
2022-11-22T20:44:45.627Z,3.90
2022-11-22T20:47:51.311Z,3.65
2022-11-22T20:50:56.921Z,3.52
2022-11-22T20:54:02.564Z,3.54
2022-11-22T20:57:09.194Z,3.96
2022-11-22T21:00:14.680Z,3.58
2022-11-22T21:03:20.830Z,3.75
2022-11-22T21:06:26.330Z,4.47
2022-11-22T21:09:30.960Z,4.97
2022-11-22T21:12:36.816Z,5.23
2022-11-22T21:15:42.908Z,4.94
2022-11-22T21:18:48.602Z,5.08
2022-11-22T21:21:54.551Z,5.46
2022-11-22T21:24:59.788Z,4.30
2022-11-22T21:27:59.411Z,3.71
2022-11-22T21:31:09.855Z,3.51
2022-11-22T21:34:15.472Z,4.09
2022-11-22T21:37:21.847Z,3.97
2022-11-22T21:40:28.460Z,4.47
2022-11-22T21:43:34.718Z,4.16
2022-11-22T21:46:39.711Z,4.23
2022-11-22T21:49:45.370Z,4.08
2022-11-22T21:52:51.344Z,3.60
2022-11-22T21:56:10.907Z,3.63
2022-11-22T21:59:15.810Z,4.32
2022-11-22T22:02:21.631Z,4.33
2022-11-22T22:05:27.705Z,3.99
2022-11-22T22:08:35.563Z,3.70
2022-11-22T22:11:34.203Z,3.51
2022-11-22T22:14:40.536Z,3.41
2022-11-22T22:17:45.231Z,3.54
2022-11-22T22:20:50.719Z,3.81
2022-11-22T22:23:56.139Z,3.52
2022-11-22T22:27:02.798Z,3.44
2022-11-22T22:30:09.432Z,3.89
2022-11-22T22:33:15.139Z,3.92
2022-11-22T22:36:21.022Z,3.91
2022-11-22T22:39:26.629Z,3.88
2022-11-22T22:42:32.727Z,4.08
2022-11-22T22:45:40.161Z,3.92
2022-11-22T22:48:46.827Z,4.28
2022-11-22T22:51:52.809Z,4.32
2022-11-22T22:54:58.612Z,4.57
2022-11-22T22:58:05.201Z,4.34
2022-11-22T23:01:20.217Z,4.33
2022-11-22T23:04:26.581Z,4.44
2022-11-22T23:07:32.275Z,4.46
2022-11-22T23:10:40.076Z,4.66
2022-11-22T23:13:47.073Z,4.92
2022-11-22T23:16:57.933Z,4.68
2022-11-22T23:19:56.888Z,5.18
2022-11-22T23:23:04.484Z,4.46
2022-11-22T23:26:10.394Z,4.43
2022-11-22T23:29:15.732Z,4.34
2022-11-22T23:32:21.474Z,4.20
2022-11-22T23:35:26.997Z,4.44
2022-11-22T23:38:33.056Z,4.47
2022-11-22T23:41:39.659Z,4.47
2022-11-22T23:44:38.572Z,4.39
2022-11-22T23:47:45.348Z,3.93
2022-11-22T23:50:52.073Z,3.68
2022-11-22T23:53:57.735Z,4.12
2022-11-22T23:57:02.653Z,4.26
